createdAt,value
2022-09-29T00:00:21.000Z,8.10
2022-09-29T00:02:51.358Z,8.00
2022-09-29T00:05:22.308Z,8.00
2022-09-29T00:07:52.740Z,8.00
2022-09-29T00:10:26.353Z,8.00
2022-09-29T00:12:59.659Z,7.90
2022-09-29T00:15:31.417Z,7.90
2022-09-29T00:18:13.651Z,7.90
2022-09-29T00:20:46.934Z,7.90
2022-09-29T00:23:15.931Z,7.90
2022-09-29T00:25:47.540Z,7.90
2022-09-29T00:28:16.751Z,7.90
2022-09-29T00:30:46.508Z,7.90
2022-09-29T00:33:14.837Z,7.90
2022-09-29T00:35:44.523Z,7.90
2022-09-29T00:38:41.709Z,7.80
2022-09-29T00:41:07.694Z,7.80
2022-09-29T00:43:58.187Z,7.70
2022-09-29T00:46:42.980Z,7.70
2022-09-29T00:49:21.702Z,7.70
2022-09-29T00:52:03.203Z,7.70
2022-09-29T00:54:38.817Z,7.70
2022-09-29T00:57:22.327Z,7.70
2022-09-29T00:59:57.932Z,7.60
2022-09-29T01:02:28.600Z,7.60
2022-09-29T01:05:08.334Z,7.60
2022-09-29T01:08:01.171Z,7.60
2022-09-29T01:10:29.747Z,7.60
2022-09-29T01:13:01.842Z,7.60
2022-09-29T01:15:54.018Z,7.60
2022-09-29T01:18:23.866Z,7.60
2022-09-29T01:21:06.438Z,7.60
2022-09-29T01:24:26.394Z,7.60
2022-09-29T01:27:18.191Z,7.60
2022-09-29T01:30:09.655Z,7.60
2022-09-29T01:33:05.717Z,7.60
2022-09-29T01:35:46.277Z,7.60
2022-09-29T01:38:41.290Z,7.60
2022-09-29T01:41:21.653Z,7.50
2022-09-29T01:43:59.760Z,7.50
2022-09-29T01:46:34.070Z,7.50
2022-09-29T01:49:10.615Z,7.50
2022-09-29T01:51:45.791Z,7.40
2022-09-29T01:54:27.991Z,7.40
2022-09-29T01:57:07.036Z,7.40
2022-09-29T01:59:47.511Z,7.40
2022-09-29T02:02:23.482Z,7.40
2022-09-29T02:05:02.761Z,7.40
2022-09-29T02:07:40.726Z,7.40
2022-09-29T02:10:17.903Z,7.40
2022-09-29T02:12:54.066Z,7.40
2022-09-29T02:15:26.860Z,7.40
2022-09-29T02:18:03.608Z,7.40
2022-09-29T02:20:33.136Z,7.40
2022-09-29T02:23:01.907Z,7.40
2022-09-29T02:25:30.226Z,7.40
2022-09-29T02:28:01.773Z,7.40
2022-09-29T02:30:29.789Z,7.30
2022-09-29T02:32:58.870Z,7.40
2022-09-29T02:35:41.899Z,7.30
2022-09-29T02:38:21.365Z,7.30
2022-09-29T02:41:00.839Z,7.30
2022-09-29T02:43:46.309Z,7.30
2022-09-29T02:46:31.523Z,7.30
2022-09-29T02:49:32.694Z,7.20
2022-09-29T02:52:11.441Z,7.30
2022-09-29T02:54:55.870Z,7.30
2022-09-29T02:57:33.413Z,7.20
2022-09-29T03:00:09.199Z,7.30
2022-09-29T03:02:42.048Z,7.20
2022-09-29T03:05:12.739Z,7.20
2022-09-29T03:07:42.585Z,7.20
2022-09-29T03:10:12.742Z,7.20
2022-09-29T03:12:41.058Z,7.20
2022-09-29T03:15:12.404Z,7.20
2022-09-29T03:17:41.146Z,7.20
2022-09-29T03:20:13.840Z,7.30
2022-09-29T03:22:43.267Z,7.20
2022-09-29T03:25:13.077Z,7.20
2022-09-29T03:27:44.278Z,7.20
2022-09-29T03:30:14.116Z,7.20
2022-09-29T03:32:42.219Z,7.20
2022-09-29T03:35:10.668Z,7.20
2022-09-29T03:37:38.733Z,7.20
2022-09-29T03:40:09.794Z,7.20
2022-09-29T03:42:37.929Z,7.20
2022-09-29T03:45:06.858Z,7.20
2022-09-29T03:47:34.992Z,7.20
2022-09-29T03:50:02.993Z,7.20
2022-09-29T03:52:33.166Z,7.20
2022-09-29T03:55:01.185Z,7.20
2022-09-29T03:57:33.058Z,7.20
2022-09-29T04:00:01.194Z,7.20
2022-09-29T04:02:29.300Z,7.20
2022-09-29T04:04:57.335Z,7.10
2022-09-29T04:07:25.370Z,7.10
2022-09-29T04:09:53.406Z,7.20
2022-09-29T04:12:21.528Z,7.20
2022-09-29T04:14:50.922Z,7.20
2022-09-29T04:17:18.960Z,7.20
2022-09-29T04:19:48.965Z,7.20
2022-09-29T04:22:20.576Z,7.20
2022-09-29T04:24:49.112Z,7.20
2022-09-29T04:27:20.268Z,7.20
2022-09-29T04:29:48.310Z,7.20
2022-09-29T04:32:17.741Z,7.20
2022-09-29T04:34:45.803Z,7.20
2022-09-29T04:37:13.847Z,7.20
2022-09-29T04:39:41.985Z,7.10
2022-09-29T04:42:10.148Z,7.10
2022-09-29T04:44:38.182Z,7.10
2022-09-29T04:47:07.294Z,7.10
2022-09-29T04:49:37.858Z,7.00
2022-09-29T04:52:05.940Z,7.00
2022-09-29T04:54:38.156Z,7.00
2022-09-29T04:57:12.790Z,7.00
2022-09-29T04:59:40.876Z,7.10
2022-09-29T05:02:09.161Z,7.10
2022-09-29T05:04:38.684Z,7.10
2022-09-29T05:07:06.698Z,7.10
2022-09-29T05:09:34.811Z,7.10
2022-09-29T05:12:03.475Z,7.10
2022-09-29T05:14:31.588Z,7.10
2022-09-29T05:17:00.242Z,7.10
2022-09-29T05:19:28.429Z,7.10
2022-09-29T05:21:57.853Z,7.10
2022-09-29T05:24:26.114Z,7.10
2022-09-29T05:26:58.494Z,7.10
2022-09-29T05:29:27.344Z,7.10
2022-09-29T05:31:55.584Z,7.20
2022-09-29T05:34:23.790Z,7.10
2022-09-29T05:36:52.120Z,7.10
2022-09-29T05:39:21.827Z,7.10
2022-09-29T05:41:50.409Z,7.10
2022-09-29T05:44:21.203Z,7.10
2022-09-29T05:46:49.295Z,7.10
2022-09-29T05:49:19.383Z,7.10
2022-09-29T05:51:52.485Z,7.10
2022-09-29T05:54:22.658Z,7.10
2022-09-29T05:56:50.749Z,7.10
2022-09-29T05:59:18.749Z,7.10
2022-09-29T06:01:47.776Z,7.10
2022-09-29T06:04:18.885Z,7.20
2022-09-29T06:06:48.556Z,7.20
2022-09-29T06:09:16.888Z,7.20
2022-09-29T06:11:47.333Z,7.20
2022-09-29T06:14:18.142Z,7.20
2022-09-29T06:16:46.280Z,7.20
2022-09-29T06:19:15.619Z,7.20
2022-09-29T06:21:43.688Z,7.20
2022-09-29T06:24:11.983Z,7.20
2022-09-29T06:26:40.217Z,7.20
2022-09-29T06:29:09.804Z,7.30
2022-09-29T06:31:37.884Z,7.30
2022-09-29T06:34:06.799Z,7.30
2022-09-29T06:36:55.653Z,7.30
2022-09-29T06:39:23.732Z,7.40
2022-09-29T06:41:56.137Z,7.40
2022-09-29T06:44:27.058Z,7.40
2022-09-29T06:46:56.012Z,7.50
2022-09-29T06:49:25.841Z,7.50
2022-09-29T06:51:54.249Z,7.50
2022-09-29T06:54:25.015Z,7.50
2022-09-29T06:56:56.783Z,7.50
2022-09-29T06:59:29.193Z,7.60
2022-09-29T07:01:57.733Z,7.60
2022-09-29T07:04:26.592Z,7.60
2022-09-29T07:06:54.696Z,7.60
2022-09-29T07:09:26.207Z,7.60
2022-09-29T07:11:54.313Z,7.60
2022-09-29T07:14:27.788Z,7.70
2022-09-29T07:17:00.698Z,7.70
2022-09-29T07:19:29.396Z,7.70
2022-09-29T07:21:57.499Z,7.80
2022-09-29T07:24:26.317Z,7.80
2022-09-29T07:26:54.716Z,7.80
2022-09-29T07:29:22.876Z,7.80
2022-09-29T07:31:53.087Z,7.90
2022-09-29T07:34:23.098Z,7.90
2022-09-29T07:36:51.569Z,7.90
2022-09-29T07:39:22.308Z,8.00
2022-09-29T07:41:50.485Z,8.00
2022-09-29T07:44:19.522Z,8.00
2022-09-29T07:46:52.930Z,8.00
2022-09-29T07:49:22.367Z,8.10
2022-09-29T07:51:50.506Z,8.20
2022-09-29T07:54:18.536Z,8.20
2022-09-29T07:56:46.631Z,8.20
2022-09-29T07:59:14.729Z,8.30
2022-09-29T08:01:43.803Z,8.30
2022-09-29T08:04:12.941Z,8.30
2022-09-29T08:06:43.532Z,8.40
2022-09-29T08:09:12.592Z,8.40
2022-09-29T08:11:42.607Z,8.50
2022-09-29T08:14:12.261Z,8.50
2022-09-29T08:16:40.513Z,8.50
2022-09-29T08:19:08.820Z,8.60
2022-09-29T08:21:38.469Z,8.60
2022-09-29T08:24:08.768Z,8.70
2022-09-29T08:26:43.746Z,8.70
2022-09-29T08:29:17.777Z,8.70
2022-09-29T08:31:46.448Z,8.80
2022-09-29T08:34:15.515Z,8.80
2022-09-29T08:36:47.193Z,8.90
2022-09-29T08:39:16.680Z,8.90
2022-09-29T08:41:53.307Z,8.90
2022-09-29T08:44:38.796Z,9.00
2022-09-29T08:47:19.505Z,9.00
2022-09-29T08:49:51.052Z,9.10
2022-09-29T08:52:25.626Z,9.10
2022-09-29T08:55:13.882Z,9.10
2022-09-29T08:57:47.727Z,9.20
2022-09-29T09:00:18.262Z,9.20
2022-09-29T09:03:09.652Z,9.20
2022-09-29T09:05:57.943Z,9.30
2022-09-29T09:08:42.941Z,9.30
2022-09-29T09:11:30.534Z,9.40
2022-09-29T09:14:11.301Z,9.40
2022-09-29T09:16:48.688Z,9.40
2022-09-29T09:19:57.126Z,9.50
2022-09-29T09:22:26.655Z,9.50
2022-09-29T09:25:00.562Z,9.50
2022-09-29T09:27:41.724Z,9.50
2022-09-29T09:30:16.496Z,9.50
2022-09-29T09:32:51.075Z,9.50
2022-09-29T09:35:46.774Z,9.60
2022-09-29T09:38:26.007Z,9.60
2022-09-29T09:40:57.535Z,9.60
2022-09-29T09:43:35.901Z,9.70
2022-09-29T09:46:14.510Z,9.70
2022-09-29T09:48:47.540Z,9.70
2022-09-29T09:51:34.497Z,9.80
2022-09-29T09:54:13.764Z,9.80
2022-09-29T09:57:09.159Z,9.80
2022-09-29T09:59:56.598Z,9.80
2022-09-29T10:02:25.792Z,9.90
2022-09-29T10:04:55.343Z,9.90
2022-09-29T10:07:25.410Z,9.90
2022-09-29T10:09:54.086Z,10.00
2022-09-29T10:12:27.880Z,10.00
2022-09-29T10:15:02.647Z,10.10
2022-09-29T10:17:38.655Z,10.10
2022-09-29T10:20:08.335Z,10.10
2022-09-29T10:22:37.416Z,10.10
2022-09-29T10:25:16.317Z,10.20
2022-09-29T10:27:47.462Z,10.20
2022-09-29T10:30:24.095Z,10.30
2022-09-29T10:32:59.559Z,10.30
2022-09-29T10:35:35.014Z,10.30
2022-09-29T10:38:10.035Z,10.40
2022-09-29T10:40:39.288Z,10.40
2022-09-29T10:43:26.906Z,10.40
2022-09-29T10:45:58.760Z,10.40
2022-09-29T10:48:30.879Z,10.40
2022-09-29T10:51:03.053Z,10.40
2022-09-29T10:53:36.857Z,10.40
2022-09-29T10:56:15.982Z,10.50
2022-09-29T10:59:06.166Z,10.50
2022-09-29T11:01:47.734Z,10.50
2022-09-29T11:04:21.029Z,10.50
2022-09-29T11:06:50.083Z,10.50
2022-09-29T11:09:36.728Z,10.50
2022-09-29T11:12:09.382Z,10.50
2022-09-29T11:14:43.166Z,10.50
2022-09-29T11:17:25.953Z,10.60
2022-09-29T11:19:59.521Z,10.60
2022-09-29T11:22:55.415Z,10.60
2022-09-29T11:25:39.554Z,10.70
2022-09-29T11:28:39.734Z,10.70
2022-09-29T11:31:24.799Z,10.70
2022-09-29T11:34:05.772Z,10.70
2022-09-29T11:36:45.299Z,10.70
2022-09-29T11:39:35.799Z,10.80
2022-09-29T11:42:29.178Z,10.80
2022-09-29T11:45:03.608Z,10.80
2022-09-29T11:47:57.702Z,10.80
2022-09-29T11:50:39.639Z,10.80
2022-09-29T11:53:43.442Z,10.80
2022-09-29T11:56:31.906Z,10.80
2022-09-29T11:59:28.081Z,10.80
2022-09-29T12:02:19.743Z,10.90
2022-09-29T12:05:01.499Z,10.90
2022-09-29T12:07:41.266Z,10.90
2022-09-29T12:10:34.232Z,10.90
2022-09-29T12:13:13.249Z,10.90
2022-09-29T12:15:52.293Z,10.90
2022-09-29T12:18:29.657Z,11.00
2022-09-29T12:20:58.731Z,11.00
2022-09-29T12:23:31.788Z,11.00
2022-09-29T12:26:04.717Z,11.00
2022-09-29T12:28:41.706Z,11.00
2022-09-29T12:31:14.220Z,11.00
2022-09-29T12:33:47.522Z,11.00
2022-09-29T12:36:51.948Z,11.00
2022-09-29T12:39:34.134Z,11.00
2022-09-29T12:42:24.124Z,11.00
2022-09-29T12:45:02.645Z,11.00
2022-09-29T12:47:49.385Z,11.00
2022-09-29T12:50:21.021Z,11.00
2022-09-29T12:52:58.100Z,11.00
2022-09-29T12:55:32.895Z,11.00
2022-09-29T12:58:08.275Z,11.00
2022-09-29T13:00:39.949Z,11.00
2022-09-29T13:03:56.093Z,11.00
2022-09-29T13:06:55.752Z,11.00
2022-09-29T13:10:13.885Z,11.00
2022-09-29T13:13:10.035Z,11.00
2022-09-29T13:16:02.594Z,11.00
2022-09-29T13:19:20.251Z,10.90
2022-09-29T13:22:00.664Z,11.00
2022-09-29T13:24:52.055Z,11.00
2022-09-29T13:27:32.829Z,11.00
2022-09-29T13:30:14.516Z,11.00
2022-09-29T13:32:46.481Z,11.00
2022-09-29T13:35:18.391Z,11.00
2022-09-29T13:37:50.714Z,11.00
2022-09-29T13:40:25.388Z,11.00
2022-09-29T13:42:55.940Z,11.10
2022-09-29T13:45:49.366Z,11.10
2022-09-29T13:48:50.538Z,11.10
2022-09-29T13:51:50.895Z,11.10
2022-09-29T13:54:37.954Z,11.10
2022-09-29T13:57:31.025Z,11.10
2022-09-29T14:00:22.721Z,11.10
2022-09-29T14:03:07.528Z,11.10
2022-09-29T14:05:48.440Z,11.10
2022-09-29T14:08:38.471Z,11.10
2022-09-29T14:11:19.674Z,11.10
2022-09-29T14:13:57.782Z,11.10
2022-09-29T14:16:47.607Z,11.10
2022-09-29T14:19:46.911Z,11.10
2022-09-29T14:22:57.111Z,11.10
2022-09-29T14:25:56.589Z,11.10
2022-09-29T14:28:36.061Z,11.10
2022-09-29T14:31:04.527Z,11.10
2022-09-29T14:33:44.897Z,11.10
2022-09-29T14:36:22.394Z,11.10
2022-09-29T14:39:14.326Z,11.10
2022-09-29T14:41:42.822Z,11.10
2022-09-29T14:44:14.580Z,11.10
2022-09-29T14:47:32.277Z,11.10
2022-09-29T14:50:46.925Z,11.10
2022-09-29T14:53:29.178Z,11.10
2022-09-29T14:56:12.796Z,11.10
2022-09-29T14:58:59.768Z,11.20
2022-09-29T15:01:29.827Z,11.20
2022-09-29T15:03:59.438Z,11.20
2022-09-29T15:06:31.085Z,11.30
2022-09-29T15:09:02.206Z,11.30
2022-09-29T15:11:36.519Z,11.30
2022-09-29T15:14:23.191Z,11.30
2022-09-29T15:17:07.787Z,11.40
2022-09-29T15:19:55.294Z,11.40
2022-09-29T15:22:58.671Z,11.40
2022-09-29T15:25:31.519Z,11.40
2022-09-29T15:28:03.356Z,11.40
2022-09-29T15:30:35.069Z,11.40
2022-09-29T15:33:19.729Z,11.40
2022-09-29T15:35:59.765Z,11.30
2022-09-29T15:38:42.708Z,11.30
2022-09-29T15:41:28.953Z,11.30
2022-09-29T15:44:01.067Z,11.30
2022-09-29T15:46:38.493Z,11.30
2022-09-29T15:49:15.064Z,11.30
2022-09-29T15:51:47.210Z,11.20
2022-09-29T15:54:18.849Z,11.30
2022-09-29T15:57:06.195Z,11.20
2022-09-29T15:59:53.644Z,11.20
2022-09-29T16:02:30.357Z,11.20
2022-09-29T16:05:01.701Z,11.20
2022-09-29T16:07:35.343Z,11.10
2022-09-29T16:10:12.837Z,11.20
2022-09-29T16:12:56.548Z,11.10
2022-09-29T16:15:29.702Z,11.10
2022-09-29T16:18:03.136Z,11.10
2022-09-29T16:20:34.262Z,11.10
2022-09-29T16:23:08.375Z,11.10
2022-09-29T16:25:36.495Z,11.10
2022-09-29T16:28:07.424Z,11.10
2022-09-29T16:30:39.745Z,11.10
2022-09-29T16:33:15.090Z,11.00
2022-09-29T16:35:58.645Z,11.10
2022-09-29T16:38:35.589Z,11.00
2022-09-29T16:41:14.745Z,11.10
2022-09-29T16:43:45.376Z,11.00
2022-09-29T16:46:17.594Z,11.10
2022-09-29T16:48:47.273Z,11.00
2022-09-29T16:54:06.442Z,11.00
2022-09-29T16:56:37.991Z,11.00
2022-09-29T16:59:12.438Z,11.00
2022-09-29T17:01:43.379Z,11.00
2022-09-29T17:04:12.701Z,11.00
2022-09-29T17:06:45.210Z,10.90
2022-09-29T17:09:20.488Z,10.90
2022-09-29T17:11:49.458Z,10.90
2022-09-29T17:14:21.593Z,10.90
2022-09-29T17:16:51.676Z,10.90
2022-09-29T17:19:20.392Z,10.90
2022-09-29T17:21:48.623Z,10.90
2022-09-29T17:24:16.858Z,10.90
2022-09-29T17:27:04.228Z,10.80
2022-09-29T17:29:33.798Z,10.80
2022-09-29T17:32:02.784Z,10.80
2022-09-29T17:34:33.569Z,10.70
2022-09-29T17:37:03.057Z,10.70
2022-09-29T17:39:34.197Z,10.70
2022-09-29T17:42:02.386Z,10.70
2022-09-29T17:44:36.626Z,10.60
2022-09-29T17:47:26.748Z,10.70
2022-09-29T17:49:53.389Z,10.60
2022-09-29T17:52:21.374Z,10.60
2022-09-29T17:54:52.272Z,10.60
2022-09-29T17:57:24.730Z,10.60
2022-09-29T17:59:55.021Z,10.60
2022-09-29T18:02:26.435Z,10.60
2022-09-29T18:04:54.539Z,10.70
2022-09-29T18:07:25.546Z,10.60
2022-09-29T18:09:53.575Z,10.60
2022-09-29T18:12:23.926Z,10.60
2022-09-29T18:14:53.375Z,10.70
2022-09-29T18:17:21.438Z,10.60
2022-09-29T18:19:49.494Z,10.60
2022-09-29T18:22:18.301Z,10.60
2022-09-29T18:24:49.496Z,10.60
2022-09-29T18:27:18.563Z,10.60
2022-09-29T18:29:46.610Z,10.60
2022-09-29T18:32:19.126Z,10.60
2022-09-29T18:34:47.186Z,10.60
2022-09-29T18:37:16.718Z,10.60
2022-09-29T18:39:44.748Z,10.60
2022-09-29T18:42:13.182Z,10.60
2022-09-29T18:44:41.325Z,10.60
2022-09-29T18:47:15.431Z,10.60
2022-09-29T18:49:49.206Z,10.60
2022-09-29T18:52:17.484Z,10.50
2022-09-29T18:54:47.873Z,10.60
2022-09-29T18:57:15.919Z,10.50
2022-09-29T18:59:43.962Z,10.50
2022-09-29T19:02:14.592Z,10.50
2022-09-29T19:04:44.103Z,10.50
2022-09-29T19:07:16.577Z,10.50
2022-09-29T19:09:44.760Z,10.50
2022-09-29T19:12:13.169Z,10.50
2022-09-29T19:14:42.619Z,10.50
2022-09-29T19:17:11.351Z,10.40
2022-09-29T19:19:39.402Z,10.50
2022-09-29T19:22:12.458Z,10.50
2022-09-29T19:24:41.496Z,10.40
2022-09-29T19:27:09.618Z,10.40
2022-09-29T19:29:37.748Z,10.50
2022-09-29T19:32:06.997Z,10.40
2022-09-29T19:34:36.124Z,10.50
2022-09-29T19:37:04.333Z,10.40
2022-09-29T19:39:35.840Z,10.40
2022-09-29T19:42:04.027Z,10.40
2022-09-29T19:44:32.225Z,10.40
2022-09-29T19:47:00.336Z,10.40
2022-09-29T19:49:28.362Z,10.40
2022-09-29T19:51:58.701Z,10.40
2022-09-29T19:54:33.212Z,10.40
2022-09-29T19:57:05.612Z,10.30
2022-09-29T19:59:37.521Z,10.30
2022-09-29T20:02:08.546Z,10.30
2022-09-29T20:04:37.339Z,10.30
2022-09-29T20:07:10.949Z,10.30
2022-09-29T20:09:39.114Z,10.30
2022-09-29T20:12:14.806Z,10.30
2022-09-29T20:14:51.183Z,10.30
2022-09-29T20:17:20.357Z,10.30
2022-09-29T20:19:48.503Z,10.30
2022-09-29T20:22:16.532Z,10.30
2022-09-29T20:24:45.332Z,10.30
2022-09-29T20:27:14.715Z,10.30
2022-09-29T20:29:42.759Z,10.30
2022-09-29T20:32:10.938Z,10.30
2022-09-29T20:34:39.003Z,10.20
2022-09-29T20:37:07.104Z,10.20
2022-09-29T20:39:35.165Z,10.10
2022-09-29T20:42:03.760Z,10.20
2022-09-29T20:44:34.261Z,10.10
2022-09-29T20:47:02.434Z,10.10
2022-09-29T20:49:30.544Z,10.10
2022-09-29T20:52:01.595Z,10.10
2022-09-29T20:54:29.722Z,10.10
2022-09-29T20:56:57.877Z,10.10
2022-09-29T20:59:25.884Z,10.10
2022-09-29T21:01:57.747Z,10.10
2022-09-29T21:04:26.706Z,10.10
2022-09-29T21:06:55.005Z,10.00
2022-09-29T21:09:24.957Z,10.00
2022-09-29T21:11:57.129Z,10.00
2022-09-29T21:14:28.064Z,9.90
2022-09-29T21:16:58.400Z,10.00
2022-09-29T21:19:26.953Z,9.90
2022-09-29T21:21:55.789Z,9.90
2022-09-29T21:24:23.893Z,9.90
2022-09-29T21:26:52.081Z,9.90
2022-09-29T21:29:23.498Z,9.90
2022-09-29T21:31:51.660Z,9.90
2022-09-29T21:34:22.065Z,9.90
2022-09-29T21:36:50.194Z,9.90
2022-09-29T21:39:18.435Z,9.90
2022-09-29T21:41:46.948Z,9.90
2022-09-29T21:44:20.288Z,9.90
2022-09-29T21:46:51.747Z,9.90
2022-09-29T21:49:23.748Z,9.90
2022-09-29T21:51:52.462Z,9.90
2022-09-29T21:54:22.266Z,9.90
2022-09-29T21:56:51.191Z,9.90
2022-09-29T21:59:22.419Z,9.90
2022-09-29T22:01:52.218Z,10.00
2022-09-29T22:04:26.425Z,10.00
2022-09-29T22:06:54.560Z,10.00
2022-09-29T22:09:22.822Z,10.00
2022-09-29T22:11:51.175Z,10.00
2022-09-29T22:14:19.920Z,10.00
2022-09-29T22:16:48.090Z,10.00
2022-09-29T22:19:23.415Z,10.00
2022-09-29T22:21:55.287Z,10.00
2022-09-29T22:24:26.583Z,10.00
2022-09-29T22:26:55.305Z,10.00
2022-09-29T22:29:24.648Z,10.00
2022-09-29T22:31:53.933Z,10.00
2022-09-29T22:34:22.036Z,10.00
2022-09-29T22:36:50.172Z,10.00
2022-09-29T22:39:19.705Z,10.00
2022-09-29T22:41:51.010Z,10.00
2022-09-29T22:44:22.106Z,10.00
2022-09-29T22:46:50.256Z,10.00
2022-09-29T22:49:18.475Z,10.00
2022-09-29T22:51:49.398Z,10.10
2022-09-29T22:54:18.954Z,10.10
2022-09-29T22:56:47.093Z,10.10
2022-09-29T22:59:18.606Z,10.10
2022-09-29T23:01:47.303Z,10.10
2022-09-29T23:04:15.836Z,10.10
2022-09-29T23:06:43.834Z,10.10
2022-09-29T23:09:14.871Z,10.10
2022-09-29T23:11:49.125Z,10.00
2022-09-29T23:14:17.670Z,10.00
2022-09-29T23:16:48.450Z,10.00
2022-09-29T23:19:17.730Z,10.00
2022-09-29T23:21:47.885Z,9.90
2022-09-29T23:24:16.487Z,10.00
2022-09-29T23:26:47.294Z,9.90
2022-09-29T23:29:18.272Z,10.00
2022-09-29T23:31:49.871Z,9.90
2022-09-29T23:34:23.680Z,9.90
2022-09-29T23:36:51.988Z,9.90
2022-09-29T23:39:19.319Z,9.90
2022-09-29T23:41:51.742Z,9.90
2022-09-29T23:44:21.538Z,9.90
2022-09-29T23:46:54.312Z,9.90
2022-09-29T23:49:28.885Z,9.90
2022-09-29T23:52:02.006Z,9.90
2022-09-29T23:54:30.411Z,9.90
2022-09-29T23:56:59.970Z,9.90
2022-09-29T23:59:28.252Z,9.90
